createdAt,value
2017-05-05T00:00:56.644Z,8.3
2017-05-05T00:02:05.859Z,8.25
2017-05-05T00:03:14.845Z,8.3
2017-05-05T00:04:24.052Z,8.25
2017-05-05T00:05:33.588Z,8.15
2017-05-05T00:06:42.805Z,8.18
2017-05-05T00:07:51.696Z,8.11
2017-05-05T00:09:01.936Z,8.08
2017-05-05T00:10:10.820Z,8.18
2017-05-05T00:11:20.033Z,8.2
2017-05-05T00:12:29.241Z,8.18
2017-05-05T00:13:38.451Z,8.11
2017-05-05T00:14:47.917Z,8.07
2017-05-05T00:15:56.806Z,8.11
2017-05-05T00:17:05.689Z,8.18
2017-05-05T00:18:14.899Z,8.19
2017-05-05T00:19:23.787Z,8.19
2017-05-05T00:20:33.151Z,8.22
2017-05-05T00:21:42.037Z,8.08
2017-05-05T00:22:50.920Z,8.05
2017-05-05T00:23:59.804Z,7.95
2017-05-05T00:25:09.017Z,8.01
2017-05-05T00:26:18.382Z,8.08
2017-05-05T00:27:27.591Z,8.02
2017-05-05T00:28:36.802Z,8.12
2017-05-05T00:29:46.701Z,8.1
2017-05-05T00:30:56.234Z,8.15
2017-05-05T00:32:06.122Z,8.04
2017-05-05T00:33:15.013Z,7.97
2017-05-05T00:34:24.878Z,7.98
2017-05-05T00:35:34.091Z,8
2017-05-05T00:36:43.624Z,7.87
2017-05-05T00:37:52.983Z,7.93
2017-05-05T00:39:01.874Z,7.92
2017-05-05T00:40:11.087Z,7.89
2017-05-05T00:41:19.971Z,7.95
2017-05-05T00:42:29.180Z,7.8
2017-05-05T00:43:38.399Z,7.75
2017-05-05T00:44:48.261Z,7.85
2017-05-05T00:45:57.471Z,7.89
2017-05-05T00:47:06.360Z,7.85
2017-05-05T00:48:16.219Z,7.75
2017-05-05T00:49:25.731Z,7.87
2017-05-05T00:50:35.270Z,7.82
2017-05-05T00:51:44.808Z,7.8
2017-05-05T00:52:54.018Z,7.92
2017-05-05T00:54:03.229Z,7.95
2017-05-05T00:55:12.767Z,7.87
2017-05-05T00:56:21.651Z,7.92
2017-05-05T00:57:30.538Z,8
2017-05-05T00:58:39.423Z,7.86
2017-05-05T00:59:48.645Z,7.9
2017-05-05T01:00:58.389Z,7.85
2017-05-05T01:02:07.277Z,7.92
2017-05-05T01:03:16.808Z,7.9
2017-05-05T01:04:26.347Z,7.98
2017-05-05T01:05:35.556Z,7.98
2017-05-05T01:06:44.444Z,7.97
2017-05-05T01:07:53.661Z,7.89
2017-05-05T01:09:02.875Z,7.83
2017-05-05T01:10:12.087Z,7.86
2017-05-05T01:11:20.974Z,7.8
2017-05-05T01:12:30.342Z,7.86
2017-05-05T01:13:39.882Z,7.95
2017-05-05T01:14:48.772Z,7.93
2017-05-05T01:15:58.632Z,7.85
2017-05-05T01:17:07.839Z,7.85
2017-05-05T01:18:17.104Z,7.83
2017-05-05T01:19:26.314Z,7.74
2017-05-05T01:20:35.200Z,7.69
2017-05-05T01:21:44.416Z,7.83
2017-05-05T01:22:53.950Z,7.71
2017-05-05T01:24:02.985Z,7.67
2017-05-05T01:25:12.195Z,7.72
2017-05-05T01:26:21.084Z,7.79
2017-05-05T01:27:29.970Z,7.82
2017-05-05T01:28:38.853Z,7.63
2017-05-05T01:29:47.991Z,7.71
2017-05-05T01:30:57.205Z,7.69
2017-05-05T01:32:06.096Z,7.64
2017-05-05T01:33:15.634Z,7.71
2017-05-05T01:34:25.176Z,7.74
2017-05-05T01:35:34.694Z,7.72
2017-05-05T01:36:43.576Z,7.69
2017-05-05T01:37:53.110Z,7.6
2017-05-05T01:39:02.320Z,7.53
2017-05-05T01:40:11.531Z,7.64
2017-05-05T01:41:20.793Z,7.63
2017-05-05T01:42:30.326Z,7.68
2017-05-05T01:43:39.539Z,7.67
2017-05-05T01:44:49.080Z,7.58
2017-05-05T01:45:58.290Z,7.53
2017-05-05T01:47:07.648Z,7.6
2017-05-05T01:48:16.895Z,7.57
2017-05-05T01:49:26.432Z,7.58
2017-05-05T01:50:35.641Z,7.49
2017-05-05T01:51:44.522Z,7.57
2017-05-05T01:52:53.837Z,7.61
2017-05-05T01:54:02.729Z,7.58
2017-05-05T01:55:11.619Z,7.53
2017-05-05T01:56:20.833Z,7.57
2017-05-05T01:57:29.721Z,7.58
2017-05-05T01:58:39.237Z,7.48
2017-05-05T01:59:49.103Z,7.45
2017-05-05T02:00:58.968Z,7.42
2017-05-05T02:02:07.852Z,7.52
2017-05-05T02:03:17.393Z,7.53
2017-05-05T02:04:26.429Z,7.63
2017-05-05T02:05:35.640Z,7.67
2017-05-05T02:06:45.180Z,7.63
2017-05-05T02:07:54.094Z,7.64
2017-05-05T02:09:03.636Z,7.57
2017-05-05T02:10:13.555Z,7.55
2017-05-05T02:11:22.766Z,7.61
2017-05-05T02:12:31.972Z,7.67
2017-05-05T02:13:41.192Z,7.55
2017-05-05T02:14:51.054Z,7.58
2017-05-05T02:16:00.413Z,7.52
2017-05-05T02:17:09.308Z,7.6
2017-05-05T02:18:18.195Z,7.67
2017-05-05T02:19:27.403Z,7.67
2017-05-05T02:20:36.610Z,7.69
2017-05-05T02:21:45.596Z,7.69
2017-05-05T02:22:55.130Z,7.67
2017-05-05T02:24:04.337Z,7.61
2017-05-05T02:25:13.873Z,7.55
2017-05-05T02:26:22.756Z,7.58
2017-05-05T02:27:31.896Z,7.58
2017-05-05T02:28:41.442Z,7.63
2017-05-05T02:29:50.330Z,7.61
2017-05-05T02:30:59.539Z,7.67
2017-05-05T02:32:08.426Z,7.6
2017-05-05T02:33:17.462Z,7.46
2017-05-05T02:34:26.679Z,7.53
2017-05-05T02:35:35.570Z,7.58
2017-05-05T02:36:44.786Z,7.6
2017-05-05T02:37:53.673Z,7.57
2017-05-05T02:39:02.708Z,7.52
2017-05-05T02:40:11.917Z,7.58
2017-05-05T02:41:20.802Z,7.52
2017-05-05T02:42:29.684Z,7.72
2017-05-05T02:43:38.911Z,7.57
2017-05-05T02:44:48.432Z,7.55
2017-05-05T02:45:57.646Z,7.57
2017-05-05T02:47:06.535Z,7.48
2017-05-05T02:48:15.746Z,7.55
2017-05-05T02:49:24.629Z,7.61
2017-05-05T02:50:33.843Z,7.55
2017-05-05T02:51:42.730Z,7.57
2017-05-05T02:52:52.269Z,7.57
2017-05-05T02:54:01.491Z,7.58
2017-05-05T02:55:11.036Z,7.57
2017-05-05T02:56:19.920Z,7.49
2017-05-05T02:57:29.128Z,7.53
2017-05-05T02:58:38.676Z,7.52
2017-05-05T02:59:47.889Z,7.58
2017-05-05T03:00:57.429Z,7.53
2017-05-05T03:02:06.465Z,7.64
2017-05-05T03:03:15.677Z,7.57
2017-05-05T03:04:25.217Z,7.55
2017-05-05T03:05:34.432Z,7.67
2017-05-05T03:06:43.318Z,7.58
2017-05-05T03:07:52.307Z,7.57
2017-05-05T03:09:01.191Z,7.53
2017-05-05T03:10:10.404Z,7.57
2017-05-05T03:11:19.294Z,7.55
2017-05-05T03:12:28.829Z,7.57
2017-05-05T03:13:37.766Z,7.53
2017-05-05T03:14:46.980Z,7.5
2017-05-05T03:15:56.517Z,7.53
2017-05-05T03:17:05.728Z,7.52
2017-05-05T03:18:14.621Z,7.55
2017-05-05T03:19:24.487Z,7.55
2017-05-05T03:20:34.350Z,7.55
2017-05-05T03:21:43.236Z,7.55
2017-05-05T03:22:52.454Z,7.52
2017-05-05T03:24:01.672Z,7.6
2017-05-05T03:25:10.562Z,7.61
2017-05-05T03:26:19.449Z,7.57
2017-05-05T03:27:28.333Z,7.5
2017-05-05T03:28:37.868Z,7.52
2017-05-05T03:29:46.762Z,7.46
2017-05-05T03:30:56.552Z,7.43
2017-05-05T03:32:05.454Z,7.52
2017-05-05T03:33:14.671Z,7.46
2017-05-05T03:34:23.882Z,7.46
2017-05-05T03:35:33.096Z,7.48
2017-05-05T03:36:42.389Z,7.5
2017-05-05T03:37:51.932Z,7.69
2017-05-05T03:39:01.467Z,7.58
2017-05-05T03:40:10.347Z,7.58
2017-05-05T03:41:19.234Z,7.57
2017-05-05T03:42:28.596Z,7.61
2017-05-05T03:43:37.481Z,7.48
2017-05-05T03:44:46.697Z,7.53
2017-05-05T03:45:55.583Z,7.43
2017-05-05T03:47:04.467Z,7.5
2017-05-05T03:48:13.653Z,7.49
2017-05-05T03:49:22.865Z,7.48
2017-05-05T03:50:32.075Z,7.43
2017-05-05T03:51:40.986Z,7.46
2017-05-05T03:52:50.196Z,7.46
2017-05-05T03:54:00.686Z,7.53
2017-05-05T03:55:09.569Z,7.61
2017-05-05T03:56:18.787Z,7.6
2017-05-05T03:57:27.996Z,7.6
2017-05-05T03:58:36.885Z,7.69
2017-05-05T03:59:46.897Z,7.68
2017-05-05T04:00:55.782Z,7.6
2017-05-05T04:02:04.667Z,7.53
2017-05-05T04:03:13.881Z,7.43
2017-05-05T04:04:23.419Z,7.45
2017-05-05T04:05:32.780Z,7.48
2017-05-05T04:06:41.672Z,7.57
2017-05-05T04:07:50.887Z,7.57
2017-05-05T04:09:00.105Z,7.53
2017-05-05T04:10:08.990Z,7.53
2017-05-05T04:11:18.305Z,7.5
2017-05-05T04:12:27.841Z,7.5
2017-05-05T04:13:36.734Z,7.58
2017-05-05T04:14:46.275Z,7.52
2017-05-05T04:15:55.814Z,7.53
2017-05-05T04:17:05.226Z,7.57
2017-05-05T04:18:14.120Z,7.52
2017-05-05T04:19:23.006Z,7.53
2017-05-05T04:20:33.191Z,7.58
2017-05-05T04:21:42.078Z,7.55
2017-05-05T04:22:51.288Z,7.5
2017-05-05T04:24:01.149Z,7.58
2017-05-05T04:25:10.360Z,7.53
2017-05-05T04:26:19.246Z,7.55
2017-05-05T04:27:28.468Z,7.52
2017-05-05T04:28:38.159Z,7.52
2017-05-05T04:29:47.045Z,7.53
2017-05-05T04:30:56.579Z,7.61
2017-05-05T04:32:05.462Z,7.57
2017-05-05T04:33:14.343Z,7.67
2017-05-05T04:34:23.653Z,7.69
2017-05-05T04:35:33.187Z,7.85
2017-05-05T04:36:42.397Z,7.86
2017-05-05T04:37:51.615Z,7.72
2017-05-05T04:39:01.798Z,7.72
2017-05-05T04:40:11.168Z,7.64
2017-05-05T04:41:20.052Z,7.72
2017-05-05T04:42:28.942Z,7.72
2017-05-05T04:43:38.481Z,7.79
2017-05-05T04:44:47.369Z,7.82
2017-05-05T04:45:57.052Z,7.67
2017-05-05T04:47:06.268Z,7.53
2017-05-05T04:48:15.482Z,7.63
2017-05-05T04:49:24.696Z,7.68
2017-05-05T04:50:33.910Z,7.72
2017-05-05T04:51:43.503Z,7.53
2017-05-05T04:52:52.390Z,7.55
2017-05-05T04:54:01.598Z,7.49
2017-05-05T04:55:10.814Z,7.55
2017-05-05T04:56:20.349Z,7.5
2017-05-05T04:57:29.981Z,7.5
2017-05-05T04:58:39.233Z,7.63
2017-05-05T04:59:48.459Z,7.57
2017-05-05T05:00:57.343Z,7.71
2017-05-05T05:02:07.206Z,7.58
2017-05-05T05:03:16.622Z,7.55
2017-05-05T05:04:26.514Z,7.52
2017-05-05T05:05:35.403Z,7.85
2017-05-05T05:06:44.615Z,7.79
2017-05-05T05:07:53.825Z,7.87
2017-05-05T05:09:02.912Z,7.69
2017-05-05T05:10:12.455Z,7.72
2017-05-05T05:11:21.348Z,7.71
2017-05-05T05:12:30.234Z,7.68
2017-05-05T05:13:39.123Z,7.63
2017-05-05T05:14:48.868Z,7.75
2017-05-05T05:15:57.762Z,7.75
2017-05-05T05:17:06.652Z,7.77
2017-05-05T05:18:15.548Z,7.75
2017-05-05T05:19:24.441Z,7.68
2017-05-05T05:20:34.294Z,7.69
2017-05-05T05:21:43.507Z,7.64
2017-05-05T05:22:53.048Z,7.74
2017-05-05T05:24:02.264Z,7.69
2017-05-05T05:25:11.487Z,7.8
2017-05-05T05:26:20.705Z,7.95
2017-05-05T05:27:30.241Z,7.89
2017-05-05T05:28:39.784Z,7.83
2017-05-05T05:29:49.325Z,7.85
2017-05-05T05:30:58.539Z,7.82
2017-05-05T05:32:07.430Z,7.79
2017-05-05T05:33:16.651Z,7.85
2017-05-05T05:34:25.881Z,7.86
2017-05-05T05:35:34.770Z,7.86
2017-05-05T05:36:43.661Z,7.85
2017-05-05T05:37:52.881Z,7.85
2017-05-05T05:39:02.424Z,7.87
2017-05-05T05:40:11.641Z,7.71
2017-05-05T05:41:20.530Z,7.68
2017-05-05T05:42:29.419Z,7.82
2017-05-05T05:43:38.310Z,7.8
2017-05-05T05:44:47.203Z,7.86
2017-05-05T05:45:56.420Z,7.86
2017-05-05T05:47:05.337Z,7.82
2017-05-05T05:48:14.228Z,7.85
2017-05-05T05:49:23.798Z,7.83
2017-05-05T05:50:33.015Z,7.85
2017-05-05T05:51:42.608Z,7.82
2017-05-05T05:52:51.819Z,7.79
2017-05-05T05:54:00.717Z,7.87
2017-05-05T05:55:09.611Z,7.83
2017-05-05T05:56:19.149Z,7.87
2017-05-05T05:57:28.082Z,7.92
2017-05-05T05:58:37.297Z,7.83
2017-05-05T05:59:46.524Z,7.86
2017-05-05T06:00:55.409Z,7.85
2017-05-05T06:02:04.623Z,7.86
2017-05-05T06:03:13.937Z,7.72
2017-05-05T06:04:23.145Z,7.71
2017-05-05T06:05:32.040Z,7.82
2017-05-05T06:06:41.259Z,7.8
2017-05-05T06:07:50.147Z,7.85
2017-05-05T06:08:59.688Z,7.87
2017-05-05T06:10:08.951Z,7.9
2017-05-05T06:11:18.161Z,7.87
2017-05-05T06:12:27.050Z,7.85
2017-05-05T06:13:36.624Z,7.89
2017-05-05T06:14:46.506Z,7.87
2017-05-05T06:15:55.723Z,7.87
2017-05-05T06:17:04.630Z,7.98
2017-05-05T06:18:14.166Z,7.97
2017-05-05T06:19:23.404Z,7.95
2017-05-05T06:20:32.394Z,7.93
2017-05-05T06:21:41.285Z,8.01
2017-05-05T06:22:50.172Z,7.9
2017-05-05T06:23:59.060Z,7.95
2017-05-05T06:25:07.952Z,7.98
2017-05-05T06:26:17.330Z,7.98
2017-05-05T06:27:26.572Z,8.01
2017-05-05T06:28:35.790Z,7.98
2017-05-05T06:29:45.332Z,7.98
2017-05-05T06:30:54.221Z,7.98
2017-05-05T06:32:03.219Z,8
2017-05-05T06:33:12.135Z,7.82
2017-05-05T06:34:21.994Z,7.87
2017-05-05T06:35:31.210Z,8
2017-05-05T06:36:40.422Z,7.95
2017-05-05T06:37:49.461Z,8
2017-05-05T06:38:58.354Z,7.93
2017-05-05T06:40:07.946Z,7.93
2017-05-05T06:41:16.836Z,8
2017-05-05T06:42:26.054Z,7.98
2017-05-05T06:43:35.092Z,7.9
2017-05-05T06:44:44.311Z,7.98
2017-05-05T06:45:53.850Z,7.95
2017-05-05T06:47:02.751Z,7.95
2017-05-05T06:48:11.642Z,8.07
2017-05-05T06:49:20.905Z,8.08
2017-05-05T06:50:29.794Z,8.11
2017-05-05T06:51:39.006Z,8.16
2017-05-05T06:52:47.900Z,8.18
2017-05-05T06:53:57.450Z,8.16
2017-05-05T06:55:06.459Z,8.19
2017-05-05T06:56:15.350Z,8.16
2017-05-05T06:57:24.237Z,8.26
2017-05-05T06:58:33.780Z,8.23
2017-05-05T06:59:42.999Z,8.34
2017-05-05T07:00:52.616Z,8.23
2017-05-05T07:02:01.516Z,8.28
2017-05-05T07:03:10.735Z,8.16
2017-05-05T07:04:19.621Z,8.22
2017-05-05T07:05:28.841Z,8.1
2017-05-05T07:06:38.036Z,8.19
2017-05-05T07:07:47.251Z,8.22
2017-05-05T07:08:56.467Z,8.16
2017-05-05T07:10:05.378Z,8.19
2017-05-05T07:11:14.595Z,8.2
2017-05-05T07:12:23.633Z,8.11
2017-05-05T07:13:33.440Z,8.16
2017-05-05T07:14:42.434Z,8.22
2017-05-05T07:15:51.328Z,8.18
2017-05-05T07:17:00.231Z,8.23
2017-05-05T07:18:09.825Z,8.18
2017-05-05T07:19:18.710Z,8.16
2017-05-05T07:20:27.598Z,8.16
2017-05-05T07:21:36.492Z,8.2
2017-05-05T07:22:45.702Z,8.26
2017-05-05T07:23:54.649Z,8.19
2017-05-05T07:25:04.531Z,8.22
2017-05-05T07:26:14.076Z,8.23
2017-05-05T07:27:23.642Z,8.16
2017-05-05T07:28:32.860Z,8.29
2017-05-05T07:29:41.918Z,8.15
2017-05-05T07:30:50.812Z,8.23
2017-05-05T07:31:59.719Z,8.26
2017-05-05T07:33:08.622Z,8.26
2017-05-05T07:34:17.513Z,8.2
2017-05-05T07:35:26.730Z,8.25
2017-05-05T07:36:35.946Z,8.23
2017-05-05T07:37:45.490Z,8.18
2017-05-05T07:38:54.381Z,8.2
2017-05-05T07:40:03.599Z,8.3
2017-05-05T07:41:12.613Z,8.33
2017-05-05T07:42:21.826Z,8.36
2017-05-05T07:43:30.725Z,8.44
2017-05-05T07:44:40.595Z,8.38
2017-05-05T07:45:49.487Z,8.4
2017-05-05T07:46:58.526Z,8.34
2017-05-05T07:48:07.743Z,8.4
2017-05-05T07:49:16.660Z,8.36
2017-05-05T07:50:25.550Z,8.3
2017-05-05T07:51:34.763Z,8.36
2017-05-05T07:52:44.455Z,8.38
2017-05-05T07:53:53.675Z,8.4
2017-05-05T07:55:03.547Z,8.33
2017-05-05T07:56:12.435Z,8.34
2017-05-05T07:57:21.329Z,8.45
2017-05-05T07:58:30.326Z,8.38
2017-05-05T07:59:39.543Z,8.45
2017-05-05T08:00:48.435Z,8.5
2017-05-05T08:01:57.326Z,8.41
2017-05-05T08:03:06.552Z,8.38
2017-05-05T08:04:15.819Z,8.36
2017-05-05T08:05:25.037Z,8.41
2017-05-05T08:06:34.250Z,8.37
2017-05-05T08:07:43.157Z,8.36
2017-05-05T08:08:52.378Z,8.47
2017-05-05T08:10:01.752Z,8.44
2017-05-05T08:11:10.656Z,8.38
2017-05-05T08:12:19.542Z,8.41
2017-05-05T08:13:28.436Z,8.45
2017-05-05T08:14:37.652Z,8.44
2017-05-05T08:15:46.695Z,8.58
2017-05-05T08:16:55.588Z,8.43
2017-05-05T08:18:04.806Z,8.44
2017-05-05T08:19:13.708Z,8.56
2017-05-05T08:20:22.599Z,8.55
2017-05-05T08:21:31.811Z,8.62
2017-05-05T08:22:41.022Z,8.56
2017-05-05T08:23:50.562Z,8.53
2017-05-05T08:25:00.110Z,8.44
2017-05-05T08:26:09.008Z,8.56
2017-05-05T08:27:18.376Z,8.47
2017-05-05T08:28:27.614Z,8.47
2017-05-05T08:29:36.838Z,8.45
2017-05-05T08:30:46.071Z,8.5
2017-05-05T08:31:54.977Z,8.55
2017-05-05T08:33:04.347Z,8.55
2017-05-05T08:34:14.797Z,8.55
2017-05-05T08:35:23.693Z,8.65
2017-05-05T08:36:33.239Z,8.63
2017-05-05T08:37:42.463Z,8.65
2017-05-05T08:38:51.932Z,8.61
2017-05-05T08:40:00.820Z,8.66
2017-05-05T08:41:09.715Z,8.62
2017-05-05T08:42:19.258Z,8.7
2017-05-05T08:43:28.151Z,8.63
2017-05-05T08:44:37.626Z,8.66
2017-05-05T08:45:46.520Z,8.66
2017-05-05T08:46:55.410Z,8.61
2017-05-05T08:48:04.301Z,8.63
2017-05-05T08:49:13.521Z,8.73
2017-05-05T08:50:23.054Z,8.62
2017-05-05T08:51:32.280Z,8.61
2017-05-05T08:52:41.506Z,8.73
2017-05-05T08:53:50.718Z,8.66
2017-05-05T08:54:59.614Z,8.86
2017-05-05T08:56:08.704Z,8.74
2017-05-05T08:57:17.598Z,8.77
2017-05-05T08:58:27.147Z,8.91
2017-05-05T08:59:36.363Z,8.83
2017-05-05T09:00:45.255Z,8.73
2017-05-05T09:01:54.204Z,8.76
2017-05-05T09:03:03.098Z,8.76
2017-05-05T09:04:12.325Z,8.81
2017-05-05T09:05:21.876Z,8.89
2017-05-05T09:06:30.775Z,8.89
2017-05-05T09:07:39.866Z,8.73
2017-05-05T09:08:49.105Z,8.74
2017-05-05T09:09:58.653Z,8.63
2017-05-05T09:11:08.203Z,8.65
2017-05-05T09:12:17.101Z,8.77
2017-05-05T09:13:26.369Z,8.8
2017-05-05T09:14:35.262Z,8.76
2017-05-05T09:15:44.485Z,8.63
2017-05-05T09:16:53.376Z,8.66
2017-05-05T09:18:02.269Z,8.7
2017-05-05T09:19:11.484Z,8.73
2017-05-05T09:20:21.026Z,8.91
2017-05-05T09:21:30.253Z,8.83
2017-05-05T09:22:39.471Z,8.8
2017-05-05T09:23:48.362Z,8.86
2017-05-05T09:24:57.724Z,8.74
2017-05-05T09:26:07.296Z,8.73
2017-05-05T09:27:16.186Z,8.73
2017-05-05T09:28:25.731Z,8.73
2017-05-05T09:29:34.621Z,8.79
2017-05-05T09:30:44.794Z,8.71
2017-05-05T09:31:53.692Z,8.79
2017-05-05T09:33:02.906Z,8.77
2017-05-05T09:34:12.125Z,8.92
2017-05-05T09:35:21.666Z,8.83
2017-05-05T09:36:31.264Z,8.79
2017-05-05T09:37:40.805Z,8.83
2017-05-05T09:38:50.023Z,8.84
2017-05-05T09:39:58.913Z,8.87
2017-05-05T09:41:08.131Z,8.95
2017-05-05T09:42:17.175Z,8.99
2017-05-05T09:43:26.724Z,8.94
2017-05-05T09:44:35.617Z,8.94
2017-05-05T09:45:45.154Z,9.08
2017-05-05T09:46:54.369Z,8.95
2017-05-05T09:48:03.643Z,9.13
2017-05-05T09:49:13.195Z,9.05
2017-05-05T09:50:22.085Z,8.96
2017-05-05T09:51:31.633Z,8.94
2017-05-05T09:52:40.848Z,8.99
2017-05-05T09:53:50.420Z,8.95
2017-05-05T09:54:59.642Z,8.91
2017-05-05T09:56:08.856Z,9.05
2017-05-05T09:57:17.748Z,9.08
2017-05-05T09:58:26.641Z,8.94
2017-05-05T09:59:35.589Z,9.04
2017-05-05T10:00:44.802Z,9.04
2017-05-05T10:01:53.692Z,9.11
2017-05-05T10:03:02.906Z,8.91
2017-05-05T10:04:12.119Z,9.04
2017-05-05T10:05:21.160Z,9.11
2017-05-05T10:06:30.051Z,9.05
2017-05-05T10:07:39.155Z,9.05
2017-05-05T10:08:48.077Z,9.1
2017-05-05T10:09:57.623Z,9.01
2017-05-05T10:11:07.216Z,9.01
2017-05-05T10:12:16.106Z,9.1
2017-05-05T10:13:25.323Z,9.01
2017-05-05T10:14:34.213Z,9.11
2017-05-05T10:15:43.108Z,9.08
2017-05-05T10:16:52.050Z,9.08
2017-05-05T10:18:01.272Z,9.05
2017-05-05T10:19:10.490Z,9.1
2017-05-05T10:20:19.380Z,9.18
2017-05-05T10:21:28.297Z,9.14
2017-05-05T10:22:37.433Z,9.23
2017-05-05T10:23:46.661Z,9.23
2017-05-05T10:24:55.558Z,9.26
2017-05-05T10:26:04.453Z,9.29
2017-05-05T10:27:14.001Z,9.23
2017-05-05T10:28:23.267Z,9.26
2017-05-05T10:29:32.809Z,9.21
2017-05-05T10:30:41.705Z,9.23
2017-05-05T10:31:50.596Z,9.24
2017-05-05T10:32:59.818Z,9.23
2017-05-05T10:34:09.609Z,9.28
2017-05-05T10:35:18.503Z,9.29
2017-05-05T10:36:28.042Z,9.36
2017-05-05T10:37:36.930Z,9.35
2017-05-05T10:38:46.155Z,9.39
2017-05-05T10:39:55.198Z,9.28
2017-05-05T10:41:04.747Z,9.26
2017-05-05T10:42:13.640Z,9.32
2017-05-05T10:43:22.852Z,9.32
2017-05-05T10:44:32.073Z,9.23
2017-05-05T10:45:40.964Z,9.18
2017-05-05T10:46:49.860Z,9.38
2017-05-05T10:47:58.753Z,9.4
2017-05-05T10:49:08.295Z,9.48
2017-05-05T10:50:17.194Z,9.38
2017-05-05T10:51:26.461Z,9.43
2017-05-05T10:52:36.324Z,9.42
2017-05-05T10:53:45.215Z,9.42
2017-05-05T10:54:54.755Z,9.43
2017-05-05T10:56:03.646Z,9.36
2017-05-05T10:57:12.635Z,9.32
2017-05-05T10:58:21.865Z,9.35
2017-05-05T10:59:30.758Z,9.38
2017-05-05T11:00:39.967Z,9.32
2017-05-05T11:01:48.868Z,9.28
2017-05-05T11:02:57.813Z,9.24
2017-05-05T11:04:07.033Z,9.24
2017-05-05T11:05:15.919Z,9.36
2017-05-05T11:06:24.861Z,9.33
2017-05-05T11:07:33.758Z,9.32
2017-05-05T11:08:42.809Z,9.42
2017-05-05T11:09:52.037Z,9.39
2017-05-05T11:11:01.249Z,9.39
2017-05-05T11:12:10.140Z,9.38
2017-05-05T11:13:19.359Z,9.43
2017-05-05T11:14:28.309Z,9.47
2017-05-05T11:15:37.525Z,9.36
2017-05-05T11:16:46.422Z,9.42
2017-05-05T11:17:55.318Z,9.33
2017-05-05T11:19:04.533Z,9.32
2017-05-05T11:20:13.473Z,9.36
2017-05-05T11:21:22.690Z,9.35
2017-05-05T11:22:31.588Z,9.39
2017-05-05T11:23:40.484Z,9.5
2017-05-05T11:24:49.702Z,9.42
2017-05-05T11:25:59.021Z,9.39
2017-05-05T11:27:08.241Z,9.38
2017-05-05T11:28:17.141Z,9.38
2017-05-05T11:29:26.355Z,9.46
2017-05-05T11:30:35.267Z,9.48
2017-05-05T11:31:44.528Z,9.4
2017-05-05T11:32:53.426Z,9.43
2017-05-05T11:34:02.319Z,9.4
2017-05-05T11:35:11.864Z,9.4
2017-05-05T11:36:21.088Z,9.6
2017-05-05T11:37:30.130Z,9.48
2017-05-05T11:38:39.022Z,9.53
2017-05-05T11:39:48.242Z,9.58
2017-05-05T11:40:57.140Z,9.56
2017-05-05T11:42:06.366Z,9.56
2017-05-05T11:43:15.681Z,9.47
2017-05-05T11:44:24.899Z,9.39
2017-05-05T11:45:34.120Z,9.5
2017-05-05T11:46:43.016Z,9.43
2017-05-05T11:47:51.930Z,9.48
2017-05-05T11:49:02.182Z,9.5
2017-05-05T11:50:11.406Z,9.5
2017-05-05T11:51:20.297Z,9.57
2017-05-05T11:52:29.189Z,9.5
2017-05-05T11:53:38.085Z,9.58
2017-05-05T11:54:47.133Z,9.56
2017-05-05T11:55:56.025Z,9.54
2017-05-05T11:57:04.922Z,9.53
2017-05-05T11:58:13.829Z,9.64
2017-05-05T11:59:23.048Z,9.57
2017-05-05T12:00:32.400Z,9.51
2017-05-05T12:01:41.298Z,9.42
2017-05-05T12:02:50.200Z,9.51
2017-05-05T12:03:59.503Z,9.48
2017-05-05T12:05:08.436Z,9.54
2017-05-05T12:06:17.855Z,9.57
2017-05-05T12:07:26.761Z,9.66
2017-05-05T12:08:35.653Z,9.66
2017-05-05T12:09:44.558Z,9.53
2017-05-05T12:10:54.111Z,9.51
2017-05-05T12:12:03.415Z,9.57
2017-05-05T12:13:12.648Z,9.54
2017-05-05T12:14:21.568Z,9.54
2017-05-05T12:15:30.470Z,9.54
2017-05-05T12:16:40.017Z,9.53
2017-05-05T12:17:49.066Z,9.5
2017-05-05T12:18:58.293Z,9.56
2017-05-05T12:20:07.518Z,9.53
2017-05-05T12:21:16.757Z,9.46
2017-05-05T12:22:25.654Z,9.4
2017-05-05T12:23:35.432Z,9.38
2017-05-05T12:24:44.390Z,9.5
2017-05-05T12:25:53.611Z,9.5
2017-05-05T12:27:02.507Z,9.58
2017-05-05T12:28:11.724Z,9.47
2017-05-05T12:29:21.123Z,9.5
2017-05-05T12:30:30.048Z,9.5
2017-05-05T12:31:38.974Z,9.61
2017-05-05T12:32:47.884Z,9.69
2017-05-05T12:33:57.170Z,9.72
2017-05-05T12:35:06.472Z,9.61
2017-05-05T12:36:15.371Z,9.65
2017-05-05T12:37:24.281Z,9.64
2017-05-05T12:38:33.504Z,9.71
2017-05-05T12:39:42.403Z,9.75
2017-05-05T12:40:51.306Z,9.84
2017-05-05T12:42:00.226Z,9.79
2017-05-05T12:43:09.479Z,9.79
2017-05-05T12:44:18.378Z,9.69
2017-05-05T12:45:27.612Z,9.64
2017-05-05T12:46:36.748Z,9.65
2017-05-05T12:47:45.722Z,9.48
2017-05-05T12:48:54.626Z,9.53
2017-05-05T12:50:03.867Z,9.68
2017-05-05T12:51:12.795Z,9.68
2017-05-05T12:52:22.126Z,9.65
2017-05-05T12:53:31.360Z,9.6
2017-05-05T12:54:40.265Z,9.53
2017-05-05T12:55:49.485Z,9.58
2017-05-05T12:56:58.381Z,9.53
2017-05-05T12:58:08.089Z,9.48
2017-05-05T12:59:17.004Z,9.47
2017-05-05T13:00:25.907Z,9.56
2017-05-05T13:01:34.803Z,9.57
2017-05-05T13:02:44.034Z,9.66
2017-05-05T13:03:53.022Z,9.69
2017-05-05T13:05:02.245Z,9.61
2017-05-05T13:06:11.142Z,9.66
2017-05-05T13:07:20.711Z,9.48
2017-05-05T13:08:29.926Z,9.53
2017-05-05T13:09:39.294Z,9.69
2017-05-05T13:10:48.181Z,9.57
2017-05-05T13:11:57.396Z,9.51
2017-05-05T13:13:06.285Z,9.53
2017-05-05T13:14:15.174Z,9.48
2017-05-05T13:15:24.465Z,9.35
2017-05-05T13:16:33.683Z,9.35
2017-05-05T13:17:42.900Z,9.47
2017-05-05T13:18:51.793Z,9.47
2017-05-05T13:20:01.007Z,9.58
2017-05-05T13:21:10.053Z,9.51
2017-05-05T13:22:18.952Z,9.5
2017-05-05T13:23:28.173Z,9.53
2017-05-05T13:24:37.118Z,9.54
2017-05-05T13:25:46.699Z,9.4
2017-05-05T13:26:56.070Z,9.48
2017-05-05T13:28:05.282Z,9.5
2017-05-05T13:29:14.499Z,9.54
2017-05-05T13:30:23.391Z,9.5
2017-05-05T13:31:32.282Z,9.6
2017-05-05T13:32:41.176Z,9.66
2017-05-05T13:33:50.419Z,9.64
2017-05-05T13:34:59.339Z,9.64
2017-05-05T13:36:08.573Z,9.57
2017-05-05T13:37:17.469Z,9.54
2017-05-05T13:38:26.514Z,9.64
2017-05-05T13:39:35.736Z,9.66
2017-05-05T13:40:45.300Z,9.64
2017-05-05T13:41:54.545Z,9.56
2017-05-05T13:43:03.455Z,9.53
2017-05-05T13:44:12.694Z,9.53
2017-05-05T13:45:21.591Z,9.51
2017-05-05T13:46:30.487Z,9.5
2017-05-05T13:47:39.707Z,9.56
2017-05-05T13:48:48.944Z,9.54
2017-05-05T13:49:57.987Z,9.47
2017-05-05T13:51:06.892Z,9.53
2017-05-05T13:52:16.110Z,9.57
2017-05-05T13:53:25.649Z,9.56
2017-05-05T13:54:35.194Z,9.53
2017-05-05T13:55:45.263Z,9.51
2017-05-05T13:56:54.508Z,9.5
2017-05-05T13:58:03.417Z,9.53
2017-05-05T13:59:12.306Z,9.51
2017-05-05T14:00:21.525Z,9.58
2017-05-05T14:01:30.429Z,9.57
2017-05-05T14:02:39.650Z,9.65
2017-05-05T14:03:48.542Z,9.69
2017-05-05T14:04:57.444Z,9.65
2017-05-05T14:06:07.312Z,9.5
2017-05-05T14:07:16.680Z,9.65
2017-05-05T14:08:25.573Z,9.57
2017-05-05T14:09:34.474Z,9.64
2017-05-05T14:10:43.363Z,9.56
2017-05-05T14:11:52.585Z,9.65
2017-05-05T14:13:02.104Z,9.64
2017-05-05T14:14:11.002Z,9.71
2017-05-05T14:15:20.546Z,9.71
2017-05-05T14:16:29.441Z,9.66
2017-05-05T14:17:38.337Z,9.66
2017-05-05T14:18:47.380Z,9.68
2017-05-05T14:19:57.258Z,9.74
2017-05-05T14:21:06.190Z,9.72
2017-05-05T14:22:15.408Z,9.75
2017-05-05T14:23:24.329Z,9.75
2017-05-05T14:24:33.395Z,9.83
2017-05-05T14:25:42.294Z,9.74
2017-05-05T14:26:51.519Z,9.75
2017-05-05T14:28:00.417Z,9.76
2017-05-05T14:29:09.314Z,9.78
2017-05-05T14:30:18.370Z,9.72
2017-05-05T14:31:27.282Z,9.76
2017-05-05T14:32:36.183Z,9.71
2017-05-05T14:33:45.404Z,9.74
2017-05-05T14:34:54.294Z,9.72
2017-05-05T14:36:03.485Z,9.72
2017-05-05T14:37:12.381Z,9.75
2017-05-05T14:38:21.613Z,9.76
2017-05-05T14:39:30.528Z,9.84
2017-05-05T14:40:39.825Z,9.75
2017-05-05T14:41:48.842Z,9.6
2017-05-05T14:42:57.737Z,9.68
2017-05-05T14:44:06.978Z,9.68
2017-05-05T14:45:15.869Z,9.81
2017-05-05T14:46:24.770Z,9.72
2017-05-05T14:47:33.658Z,9.76
2017-05-05T14:48:42.576Z,9.84
2017-05-05T14:49:51.487Z,9.83
2017-05-05T14:51:00.384Z,9.78
2017-05-05T14:52:09.283Z,9.87
2017-05-05T14:53:18.184Z,9.79
2017-05-05T14:54:27.415Z,9.87
2017-05-05T14:55:36.646Z,9.78
2017-05-05T14:56:45.545Z,9.84
2017-05-05T14:57:54.774Z,9.9
2017-05-05T14:59:04.085Z,9.76
2017-05-05T15:00:13.320Z,9.79
2017-05-05T15:01:22.218Z,9.93
2017-05-05T15:02:31.127Z,9.87
2017-05-05T15:03:40.356Z,9.9
2017-05-05T15:04:49.728Z,9.97
2017-05-05T15:05:58.622Z,10.02
2017-05-05T15:07:07.516Z,9.97
2017-05-05T15:08:16.471Z,10.02
2017-05-05T15:09:25.365Z,10.09
2017-05-05T15:10:34.462Z,10.05
2017-05-05T15:11:43.706Z,10.08
2017-05-05T15:12:52.987Z,9.99
2017-05-05T15:14:02.256Z,10.05
2017-05-05T15:15:11.149Z,10.05
2017-05-05T15:16:20.222Z,9.91
2017-05-05T15:17:29.768Z,10.01
2017-05-05T15:18:38.660Z,9.99
2017-05-05T15:19:47.607Z,9.93
2017-05-05T15:20:56.577Z,9.97
2017-05-05T15:22:05.564Z,10.05
2017-05-05T15:23:14.465Z,9.97
2017-05-05T15:24:23.683Z,9.94